Summary for RAINWISE1

Rainwise Factory, Bar Harbor, ME 04609
Join the PWSweather.com Network
View data in metric units
Latest Conditions
Updated 5:50:00 AM EST Friday, Jan 30, 2015
Data Currently Today's Max Today's Min Today's Average
Temperature 17.6°F-8.0°C 17.6°F-8.0°C 4.0°F-15.6°C 12.9°F-10.6°C
Dew Point 12.2°F-11.0°C 12.2°F-11.0°C 0.4°F-17.6°C 8.8°F-12.9°C
Winds 2.2 mph NNW3.5 kmh NNW 3.1 mph NNW5.0 kmh NNW CalmCalm 1.5 mph2.4 kmh
Wind Gusts 3.5 mph5.6 kmh 6.0 mph9.7 kmh 1.1 mph1.8 kmh 2.8 mph4.5 kmh
Humidity 85% 92% 84% 89%
Pressure 29.89 in1012.2 mb 30.02 in1016.6 mb 29.88 in1011.9 mb 29.97 in1014.9 mb
Precipitation 0.00 in0.0 mm - - 0.00 in0.0 mm
Trends
 
Station Profile
Rainwise FactoryBar Harbor, ME 04609

Lat: 44.39, Lon: -68.208
Elevation: 29
Station Type: Rainwise MK-III

Detailed Summary for Fri, Jan 30, 2015
Hour (EST) Temperature Dew Point Humidity Winds Wind Gusts Pressure Precip Precip Rate Daily Precip Total
05:50 AM 17.6°F-8.0°C 12.2°F-11.0°C 85% 2.2 mph NNW3.5 kmh NNW 3.5 mph5.6 kmh 29.89 in1012.2 mb 0.00 in0.0 mm 0.00 in/hr0.0 mm/hr 0.00 in0.0 mm
05:45 AM 17.6°F-8.0°C 12.2°F-11.0°C 85% 1.4 mph NNW2.3 kmh NNW 2.2 mph3.5 kmh 29.88 in1011.9 mb 0.00 in0.0 mm 0.00 in/hr0.0 mm/hr 0.00 in0.0 mm
05:40 AM 17.5°F-8.1°C 12.1°F-11.1°C 85% 2.4 mph NNW3.9 kmh NNW 3.0 mph4.8 kmh 29.88 in1011.9 mb 0.00 in0.0 mm 0.00 in/hr0.0 mm/hr 0.00 in0.0 mm
05:35 AM 17.3°F-8.2°C 11.6°F-11.3°C 84% 1.8 mph NNW2.9 kmh NNW 2.7 mph4.3 kmh 29.89 in1012.2 mb 0.00 in0.0 mm 0.00 in/hr0.0 mm/hr 0.00 in0.0 mm
05:30 AM 17.3°F-8.2°C 11.5°F-11.4°C 84% 1.2 mph NNW1.9 kmh NNW 2.6 mph4.2 kmh 29.89 in1012.2 mb 0.00 in0.0 mm 0.00 in/hr0.0 mm/hr 0.00 in0.0 mm
05:25 AM 17.3°F-8.2°C 11.5°F-11.4°C 84% 1.2 mph NNW1.9 kmh NNW 3.0 mph4.8 kmh 29.89 in1012.2 mb 0.00 in0.0 mm 0.00 in/hr0.0 mm/hr 0.00 in0.0 mm
05:20 AM 17.3°F-8.2°C 11.5°F-11.4°C 84% 3.1 mph NNW5.0 kmh NNW 4.7 mph7.6 kmh 29.90 in1012.5 mb 0.00 in0.0 mm 0.00 in/hr0.0 mm/hr 0.00 in0.0 mm
05:15 AM 17.1°F-8.3°C 11.4°F-11.4°C 84% 2.4 mph N3.9 kmh N 3.5 mph5.6 kmh 29.91 in1012.9 mb 0.00 in0.0 mm 0.00 in/hr0.0 mm/hr 0.00 in0.0 mm
05:10 AM 17.1°F-8.3°C 11.3°F-11.5°C 84% 1.5 mph NNE2.4 kmh NNE 2.2 mph3.5 kmh 29.92 in1013.2 mb 0.00 in0.0 mm 0.00 in/hr0.0 mm/hr 0.00 in0.0 mm
05:05 AM 17.1°F-8.3°C 11.3°F-11.5°C 84% 1.4 mph N2.3 kmh N 2.7 mph4.3 kmh 29.92 in1013.2 mb 0.00 in0.0 mm 0.00 in/hr0.0 mm/hr 0.00 in0.0 mm
05:00 AM 17.1°F-8.3°C 11.3°F-11.5°C 84% 2.7 mph NNE4.3 kmh NNE 4.2 mph6.8 kmh 29.93 in1013.5 mb 0.00 in0.0 mm 0.00 in/hr0.0 mm/hr 0.00 in0.0 mm
04:55 AM 17.1°F-8.3°C 11.3°F-11.5°C 84% 2.3 mph NNW3.7 kmh NNW 3.2 mph5.1 kmh 29.93 in1013.5 mb 0.00 in0.0 mm 0.00 in/hr0.0 mm/hr 0.00 in0.0 mm
04:50 AM 17.0°F-8.3°C 11.3°F-11.5°C 84% 2.1 mph N3.4 kmh N 3.5 mph5.6 kmh 29.93 in1013.5 mb 0.00 in0.0 mm 0.00 in/hr0.0 mm/hr 0.00 in0.0 mm
04:45 AM 16.9°F-8.4°C 11.1°F-11.6°C 84% 2.2 mph N3.5 kmh N 3.7 mph6.0 kmh 29.93 in1013.5 mb 0.00 in0.0 mm 0.00 in/hr0.0 mm/hr 0.00 in0.0 mm
04:40 AM 16.7°F-8.5°C 11.3°F-11.5°C 85% 2.0 mph NE3.2 kmh NE 5.0 mph8.0 kmh 29.93 in1013.5 mb 0.00 in0.0 mm 0.00 in/hr0.0 mm/hr 0.00 in0.0 mm
04:35 AM 16.6°F-8.6°C 11.2°F-11.6°C 85% 2.4 mph N3.9 kmh N 4.4 mph7.1 kmh 29.94 in1013.9 mb 0.00 in0.0 mm 0.00 in/hr0.0 mm/hr 0.00 in0.0 mm
04:30 AM 16.6°F-8.6°C 11.2°F-11.6°C 85% 2.2 mph N3.5 kmh N 3.5 mph5.6 kmh 29.94 in1013.9 mb 0.00 in0.0 mm 0.00 in/hr0.0 mm/hr 0.00 in0.0 mm
04:25 AM 16.6°F-8.6°C 11.2°F-11.6°C 85% 1.9 mph N3.1 kmh N 3.0 mph4.8 kmh 29.94 in1013.9 mb 0.00 in0.0 mm 0.00 in/hr0.0 mm/hr 0.00 in0.0 mm
04:20 AM 16.5°F-8.6°C 11.1°F-11.6°C 85% 2.1 mph N3.4 kmh N 4.0 mph6.4 kmh 29.94 in1013.9 mb 0.00 in0.0 mm 0.00 in/hr0.0 mm/hr 0.00 in0.0 mm
04:15 AM 16.3°F-8.7°C 10.9°F-11.7°C 85% 2.5 mph NNE4.0 kmh NNE 4.0 mph6.4 kmh 29.94 in1013.9 mb 0.00 in0.0 mm 0.00 in/hr0.0 mm/hr 0.00 in0.0 mm
04:10 AM 16.3°F-8.7°C 10.9°F-11.7°C 85% 2.4 mph N3.9 kmh N 4.0 mph6.4 kmh 29.94 in1013.9 mb 0.00 in0.0 mm 0.00 in/hr0.0 mm/hr 0.00 in0.0 mm
04:05 AM 16.2°F-8.8°C 11.2°F-11.6°C 86% 2.3 mph NNW3.7 kmh NNW 3.5 mph5.6 kmh 29.95 in1014.2 mb 0.00 in0.0 mm 0.00 in/hr0.0 mm/hr 0.00 in0.0 mm
04:00 AM 16.0°F-8.9°C 11.0°F-11.7°C 86% 3.0 mph NNE4.8 kmh NNE 6.0 mph9.7 kmh 29.94 in1013.9 mb 0.00 in0.0 mm 0.00 in/hr0.0 mm/hr 0.00 in0.0 mm
03:55 AM 15.9°F-8.9°C 11.2°F-11.6°C 87% 2.2 mph NNW3.5 kmh NNW 3.2 mph5.1 kmh 29.95 in1014.2 mb 0.00 in0.0 mm 0.00 in/hr0.0 mm/hr 0.00 in0.0 mm
03:50 AM 15.8°F-9.0°C 11.1°F-11.6°C 87% 2.1 mph NNW3.4 kmh NNW 3.0 mph4.8 kmh 29.95 in1014.2 mb 0.00 in0.0 mm 0.00 in/hr0.0 mm/hr 0.00 in0.0 mm
03:45 AM 15.5°F-9.2°C 10.8°F-11.8°C 87% 1.6 mph NNE2.6 kmh NNE 3.2 mph5.1 kmh 29.95 in1014.2 mb 0.00 in0.0 mm 0.00 in/hr0.0 mm/hr 0.00 in0.0 mm
03:40 AM 15.2°F-9.3°C 10.9°F-11.7°C 88% 2.0 mph N3.2 kmh N 3.5 mph5.6 kmh 29.95 in1014.2 mb 0.00 in0.0 mm 0.00 in/hr0.0 mm/hr 0.00 in0.0 mm
03:35 AM 15.1°F-9.4°C 10.8°F-11.8°C 88% 2.1 mph N3.4 kmh N 4.0 mph6.4 kmh 29.96 in1014.6 mb 0.00 in0.0 mm 0.00 in/hr0.0 mm/hr 0.00 in0.0 mm
03:30 AM 15.0°F-9.4°C 10.7°F-11.8°C 88% 1.5 mph NNW2.4 kmh NNW 3.0 mph4.8 kmh 29.96 in1014.6 mb 0.00 in0.0 mm 0.00 in/hr0.0 mm/hr 0.00 in0.0 mm
03:25 AM 14.8°F-9.6°C 10.8°F-11.8°C 89% 1.8 mph NNW2.9 kmh NNW 2.7 mph4.3 kmh 29.97 in1014.9 mb 0.00 in0.0 mm 0.00 in/hr0.0 mm/hr 0.00 in0.0 mm
03:20 AM 14.6°F-9.7°C 11.0°F-11.7°C 90% 2.5 mph NNW4.0 kmh NNW 3.7 mph6.0 kmh 29.97 in1014.9 mb 0.00 in0.0 mm 0.00 in/hr0.0 mm/hr 0.00 in0.0 mm
03:15 AM 14.5°F-9.7°C 10.9°F-11.7°C 90% 2.0 mph N3.2 kmh N 2.7 mph4.3 kmh 29.97 in1014.9 mb 0.00 in0.0 mm 0.00 in/hr0.0 mm/hr 0.00 in0.0 mm
03:10 AM 14.4°F-9.8°C 11.1°F-11.6°C 91% 1.8 mph N2.9 kmh N 3.0 mph4.8 kmh 29.97 in1014.9 mb 0.00 in0.0 mm 0.00 in/hr0.0 mm/hr 0.00 in0.0 mm
03:05 AM 14.0°F-10.0°C 10.8°F-11.8°C 91% 1.7 mph N2.7 kmh N 2.6 mph4.2 kmh 29.97 in1014.9 mb 0.00 in0.0 mm 0.00 in/hr0.0 mm/hr 0.00 in0.0 mm
03:00 AM 13.7°F-10.2°C 10.5°F-11.9°C 91% 1.7 mph NNE2.7 kmh NNE 2.7 mph4.3 kmh 29.98 in1015.2 mb 0.00 in0.0 mm 0.00 in/hr0.0 mm/hr 0.00 in0.0 mm
02:55 AM 13.4°F-10.3°C 10.2°F-12.1°C 91% 1.3 mph NNW2.1 kmh NNW 3.0 mph4.8 kmh 29.98 in1015.2 mb 0.00 in0.0 mm 0.00 in/hr0.0 mm/hr 0.00 in0.0 mm
02:50 AM 13.0°F-10.6°C 9.8°F-12.3°C 91% 1.4 mph NNW2.3 kmh NNW 2.2 mph3.5 kmh 29.98 in1015.2 mb 0.00 in0.0 mm 0.00 in/hr0.0 mm/hr 0.00 in0.0 mm
02:45 AM 12.8°F-10.7°C 9.5°F-12.5°C 91% 0.7 mph NNW1.1 kmh NNW 2.2 mph3.5 kmh 29.98 in1015.2 mb 0.00 in0.0 mm 0.00 in/hr0.0 mm/hr 0.00 in0.0 mm
02:40 AM 12.5°F-10.8°C 9.3°F-12.6°C 91% 1.5 mph NNW2.4 kmh NNW 2.6 mph4.2 kmh 29.99 in1015.6 mb 0.00 in0.0 mm 0.00 in/hr0.0 mm/hr 0.00 in0.0 mm
02:35 AM 12.3°F-10.9°C 9.1°F-12.7°C 91% 0.5 mph NNW0.8 kmh NNW 1.8 mph2.9 kmh 29.99 in1015.6 mb 0.00 in0.0 mm 0.00 in/hr0.0 mm/hr 0.00 in0.0 mm
02:30 AM 12.2°F-11.0°C 8.9°F-12.8°C 91% 0.2 mph NNW0.3 kmh NNW 1.6 mph2.6 kmh 29.99 in1015.6 mb 0.00 in0.0 mm 0.00 in/hr0.0 mm/hr 0.00 in0.0 mm
02:25 AM 12.1°F-11.1°C 8.8°F-12.9°C 91% 0.1 mph NNW0.2 kmh NNW 1.6 mph2.6 kmh 29.99 in1015.6 mb 0.00 in0.0 mm 0.00 in/hr0.0 mm/hr 0.00 in0.0 mm
02:20 AM 11.9°F-11.2°C 8.7°F-12.9°C 91% 1.0 mph NNW1.6 kmh NNW 2.1 mph3.4 kmh 29.99 in1015.6 mb 0.00 in0.0 mm 0.00 in/hr0.0 mm/hr 0.00 in0.0 mm
02:15 AM 11.6°F-11.3°C 8.3°F-13.2°C 91% 0.2 mph NNW0.3 kmh NNW 1.3 mph2.1 kmh 29.99 in1015.6 mb 0.00 in0.0 mm 0.00 in/hr0.0 mm/hr 0.00 in0.0 mm
02:10 AM 11.3°F-11.5°C 8.0°F-13.3°C 91% Calm Calm 1.3 mph2.1 kmh 29.99 in1015.6 mb 0.00 in0.0 mm 0.00 in/hr0.0 mm/hr 0.00 in0.0 mm
02:05 AM 11.0°F-11.7°C 7.8°F-13.4°C 91% 0.2 mph NNW0.3 kmh NNW 1.3 mph2.1 kmh 29.99 in1015.6 mb 0.00 in0.0 mm 0.00 in/hr0.0 mm/hr 0.00 in0.0 mm
02:00 AM 10.8°F-11.8°C 7.5°F-13.6°C 91% 0.8 mph NNW1.3 kmh NNW 2.2 mph3.5 kmh 29.99 in1015.6 mb 0.00 in0.0 mm 0.00 in/hr0.0 mm/hr 0.00 in0.0 mm
01:55 AM 10.5°F-11.9°C 7.3°F-13.7°C 91% 0.9 mph NNW1.4 kmh NNW 2.7 mph4.3 kmh 30.00 in1015.9 mb 0.00 in0.0 mm 0.00 in/hr0.0 mm/hr 0.00 in0.0 mm
01:50 AM 10.5°F-11.9°C 7.3°F-13.7°C 91% 0.3 mph NNW0.5 kmh NNW 1.8 mph2.9 kmh 30.00 in1015.9 mb 0.00 in0.0 mm 0.00 in/hr0.0 mm/hr 0.00 in0.0 mm
01:45 AM 10.5°F-11.9°C 7.3°F-13.7°C 91% 0.6 mph NNW1.0 kmh NNW 1.6 mph2.6 kmh 30.00 in1015.9 mb 0.00 in0.0 mm 0.00 in/hr0.0 mm/hr 0.00 in0.0 mm
01:40 AM 10.6°F-11.9°C 7.4°F-13.7°C 91% 1.7 mph NNW2.7 kmh NNW 2.6 mph4.2 kmh 30.00 in1015.9 mb 0.00 in0.0 mm 0.00 in/hr0.0 mm/hr 0.00 in0.0 mm
01:35 AM 10.6°F-11.9°C 7.4°F-13.7°C 91% 1.3 mph NNW2.1 kmh NNW 2.2 mph3.5 kmh 30.00 in1015.9 mb 0.00 in0.0 mm 0.00 in/hr0.0 mm/hr 0.00 in0.0 mm
01:30 AM 10.8°F-11.8°C 7.6°F-13.6°C 91% 2.2 mph NNW3.5 kmh NNW 3.0 mph4.8 kmh 30.00 in1015.9 mb 0.00 in0.0 mm 0.00 in/hr0.0 mm/hr 0.00 in0.0 mm
01:25 AM 10.6°F-11.9°C 7.7°F-13.5°C 92% 1.4 mph NNW2.3 kmh NNW 2.6 mph4.2 kmh 30.00 in1015.9 mb 0.00 in0.0 mm 0.00 in/hr0.0 mm/hr 0.00 in0.0 mm
01:20 AM 10.2°F-12.1°C 7.3°F-13.7°C 92% 1.6 mph NNW2.6 kmh NNW 2.7 mph4.3 kmh 30.00 in1015.9 mb 0.00 in0.0 mm 0.00 in/hr0.0 mm/hr 0.00 in0.0 mm
01:15 AM 9.7°F-12.4°C 6.8°F-14.0°C 92% 1.9 mph NNW3.1 kmh NNW 2.6 mph4.2 kmh 30.00 in1015.9 mb 0.00 in0.0 mm 0.00 in/hr0.0 mm/hr 0.00 in0.0 mm
01:10 AM 9.3°F-12.6°C 6.0°F-14.4°C 91% 1.8 mph NNW2.9 kmh NNW 2.7 mph4.3 kmh 30.00 in1015.9 mb 0.00 in0.0 mm 0.00 in/hr0.0 mm/hr 0.00 in0.0 mm
01:05 AM 9.0°F-12.8°C 5.7°F-14.6°C 91% 1.3 mph NNW2.1 kmh NNW 2.2 mph3.5 kmh 30.00 in1015.9 mb 0.00 in0.0 mm 0.00 in/hr0.0 mm/hr 0.00 in0.0 mm
01:00 AM 8.8°F-12.9°C 5.6°F-14.7°C 91% 1.4 mph NNW2.3 kmh NNW 2.7 mph4.3 kmh 30.00 in1015.9 mb 0.00 in0.0 mm 0.00 in/hr0.0 mm/hr 0.00 in0.0 mm
12:55 AM 8.9°F-12.8°C 5.6°F-14.7°C 91% 0.7 mph NNW1.1 kmh NNW 2.2 mph3.5 kmh 30.00 in1015.9 mb 0.00 in0.0 mm 0.00 in/hr0.0 mm/hr 0.00 in0.0 mm
12:50 AM 8.6°F-13.0°C 5.7°F-14.6°C 92% 1.0 mph NNW1.6 kmh NNW 1.8 mph2.9 kmh 30.00 in1015.9 mb 0.00 in0.0 mm 0.00 in/hr0.0 mm/hr 0.00 in0.0 mm
12:45 AM 8.2°F-13.2°C 4.9°F-15.1°C 91% 1.9 mph NNW3.1 kmh NNW 2.2 mph3.5 kmh 30.00 in1015.9 mb 0.00 in0.0 mm 0.00 in/hr0.0 mm/hr 0.00 in0.0 mm
12:40 AM 7.9°F-13.4°C 4.7°F-15.2°C 91% 1.3 mph NNW2.1 kmh NNW 2.6 mph4.2 kmh 30.00 in1015.9 mb 0.00 in0.0 mm 0.00 in/hr0.0 mm/hr 0.00 in0.0 mm
12:35 AM 7.7°F-13.5°C 4.5°F-15.3°C 91% 1.2 mph NNW1.9 kmh NNW 2.7 mph4.3 kmh 30.00 in1015.9 mb 0.00 in0.0 mm 0.00 in/hr0.0 mm/hr 0.00 in0.0 mm
12:30 AM 7.4°F-13.7°C 4.1°F-15.5°C 91% 0.4 mph NNW0.6 kmh NNW 1.3 mph2.1 kmh 30.01 in1016.3 mb 0.00 in0.0 mm 0.00 in/hr0.0 mm/hr 0.00 in0.0 mm
12:25 AM 6.9°F-13.9°C 3.6°F-15.8°C 91% Calm Calm 1.1 mph1.8 kmh 30.01 in1016.3 mb 0.00 in0.0 mm 0.00 in/hr0.0 mm/hr 0.00 in0.0 mm
12:20 AM 6.7°F-14.1°C 3.4°F-15.9°C 91% 1.2 mph NNW1.9 kmh NNW 2.2 mph3.5 kmh 30.01 in1016.3 mb 0.00 in0.0 mm 0.00 in/hr0.0 mm/hr 0.00 in0.0 mm
12:15 AM 6.4°F-14.2°C 3.5°F-15.8°C 92% 1.3 mph NNW2.1 kmh NNW 1.8 mph2.9 kmh 30.02 in1016.6 mb 0.00 in0.0 mm 0.00 in/hr0.0 mm/hr 0.00 in0.0 mm
12:10 AM 5.6°F-14.7°C 2.4°F-16.4°C 91% 2.1 mph NNW3.4 kmh NNW 2.7 mph4.3 kmh 30.02 in1016.6 mb 0.00 in0.0 mm 0.00 in/hr0.0 mm/hr 0.00 in0.0 mm
12:05 AM 4.8°F-15.1°C 1.6°F-16.9°C 91% 1.8 mph NNW2.9 kmh NNW 2.2 mph3.5 kmh 30.02 in1016.6 mb 0.00 in0.0 mm 0.00 in/hr0.0 mm/hr 0.00 in0.0 mm
12:00 AM 4.0°F-15.6°C 0.4°F-17.6°C 90% 1.6 mph NNW2.6 kmh NNW 2.6 mph4.2 kmh 30.02 in1016.6 mb 0.00 in0.0 mm 0.00 in/hr0.0 mm/hr 0.05 in1.3 mm
WeatherForYou.com, LLC is not responsible for any damages or problems caused by this service. Current weather conditions are obtained from the closest station including government and personal stations which may have varying degrees of accuracy. Weather forecasts are derived from the NOAA NDFD and obtained through HAMweather's Aeris Weather API. Like all things, this site belongs to Jesus Christ... He just trusts me to maintain it. If you have any questions or comments email webmaster@weatherforyou.com

Copyright © 2015, WeatherForYou.com LLC. All rights reserved.